Time;durP1;ratioP1;P1;durP2;ratioP2;P2;SDS_P1;SDS_P2;PMS_P1;PMS_P2;Temp;Humidity;BMP_temperature;BMP_pressure;BME280_temperature;BME280_humidity;BME280_pressure;Samples;Min_cycle;Max_cycle;Signal;HPM_P1;HPM_P2
2022/05/24 00:00:52;;;;;;;5.20;4.70;;;17.60;99.90;;;;;;5038598;28;20202;-82
2022/05/24 00:03:19;;;;;;;5.23;4.57;;;17.60;99.90;;;;;;5064509;28;20217;-81
2022/05/24 00:05:45;;;;;;;5.17;4.67;;;17.50;99.90;;;;;;5057943;28;20191;-82
2022/05/24 00:08:11;;;;;;;5.37;4.97;;;17.50;99.90;;;;;;5057263;28;20261;-80
2022/05/24 00:10:37;;;;;;;5.20;4.47;;;17.40;99.90;;;;;;5068121;28;20467;-81
2022/05/24 00:13:03;;;;;;;4.70;4.30;;;17.50;99.90;;;;;;5043317;28;20233;-81
2022/05/24 00:15:31;;;;;;;4.70;4.30;;;17.50;99.90;;;;;;5064546;28;20213;-81
2022/05/24 00:18:11;;;;;;;4.77;4.37;;;17.50;99.90;;;;;;5064692;28;20690;-81
2022/05/24 00:20:47;;;;;;;4.80;4.40;;;17.50;99.90;;;;;;5066262;28;20229;-82
2022/05/24 00:23:13;;;;;;;4.63;4.20;;;17.70;99.90;;;;;;5054021;28;20223;-81
2022/05/24 00:25:45;;;;;;;4.83;4.30;;;17.70;99.90;;;;;;5057475;28;20249;-81
2022/05/24 00:28:12;;;;;;;5.23;4.83;;;17.70;99.90;;;;;;5047425;28;20688;-81
2022/05/24 00:30:38;;;;;;;5.20;4.70;;;17.60;99.90;;;;;;5060781;28;20205;-81
2022/05/24 00:33:05;;;;;;;4.90;4.60;;;17.50;99.90;;;;;;5061314;28;20219;-81
2022/05/24 00:35:31;;;;;;;4.75;4.35;;;17.60;99.90;;;;;;5064463;28;20187;-82
2022/05/24 00:37:57;;;;;;;4.82;4.53;;;17.80;99.90;;;;;;5059662;28;20184;-81
2022/05/24 00:40:48;;;;;;;5.15;4.75;;;17.90;99.90;;;;;;5050664;28;20263;-81
2022/05/24 00:43:29;;;;;;;5.47;4.93;;;17.80;99.90;;;;;;5075549;28;20498;-81
2022/05/24 00:46:00;;;;;;;5.60;5.17;;;17.70;99.90;;;;;;5066790;28;20191;-81
2022/05/24 00:48:35;;;;;;;5.60;5.20;;;17.50;99.90;;;;;;5045087;28;20207;-81
2022/05/24 00:51:02;;;;;;;6.30;5.80;;;17.40;99.90;;;;;;5059857;28;20652;-81
2022/05/24 00:53:40;;;;;;;6.17;5.57;;;17.30;99.90;;;;;;5062952;28;20217;-81
2022/05/24 00:56:17;;;;;;;6.10;5.60;;;17.30;99.90;;;;;;5062270;28;20212;-81
2022/05/24 00:58:58;;;;;;;6.00;5.50;;;17.30;99.90;;;;;;5064602;28;20210;-81
2022/05/24 01:01:31;;;;;;;5.80;5.17;;;17.30;99.90;;;;;;5055336;28;20186;-81
2022/05/24 01:03:57;;;;;;;6.20;5.70;;;17.20;99.90;;;;;;5062395;28;20694;-81
2022/05/24 01:06:24;;;;;;;5.77;5.33;;;17.30;99.90;;;;;;5060983;28;20218;-81
2022/05/24 01:08:51;;;;;;;5.30;4.90;;;17.20;99.90;;;;;;5056479;28;20199;-80
2022/05/24 01:11:19;;;;;;;5.45;5.10;;;17.30;99.90;;;;;;5064526;28;20219;-80
2022/05/24 01:13:45;;;;;;;5.05;4.75;;;17.50;99.90;;;;;;5042502;28;20225;-81
2022/05/24 01:16:12;;;;;;;5.30;4.80;;;17.60;99.90;;;;;;5068062;28;20197;-80
2022/05/24 01:18:39;;;;;;;5.68;5.18;;;17.50;99.90;;;;;;5073010;28;20186;-81
2022/05/24 01:21:09;;;;;;;5.25;4.50;;;17.60;99.90;;;;;;5063592;28;20198;-80
2022/05/24 01:23:53;;;;;;;4.85;4.35;;;17.70;99.90;;;;;;5064011;28;20467;-80
2022/05/24 01:26:41;;;;;;;5.10;4.70;;;17.70;99.90;;;;;;5057067;28;20333;-80
2022/05/24 01:29:08;;;;;;;5.82;4.28;;;17.70;99.90;;;;;;5054852;28;20180;-80
2022/05/24 01:37:06;;;;;;;4.65;4.25;;;17.70;99.90;;;;;;5068674;28;20286;-81
2022/05/24 01:39:32;;;;;;;5.18;4.68;;;17.60;99.90;;;;;;5064553;28;20309;-81
2022/05/24 01:42:01;;;;;;;4.90;4.50;;;17.60;99.90;;;;;;5043722;28;20200;-81
2022/05/24 01:44:36;;;;;;;5.30;4.90;;;17.60;99.90;;;;;;5078059;28;20215;-82
2022/05/24 01:47:01;;;;;;;5.00;4.60;;;17.60;99.90;;;;;;5042306;28;20195;-81
2022/05/24 01:49:32;;;;;;;4.63;4.22;;;17.50;99.90;;;;;;5055806;28;20204;-81
2022/05/24 01:52:22;;;;;;;4.28;3.85;;;17.50;99.90;;;;;;5064718;28;20192;-81
2022/05/24 01:54:56;;;;;;;4.95;4.53;;;17.60;99.90;;;;;;5062308;28;20231;-81
2022/05/24 01:57:43;;;;;;;4.82;4.40;;;17.70;99.90;;;;;;5063395;28;20252;-81
2022/05/24 02:00:12;;;;;;;5.20;4.75;;;17.60;99.90;;;;;;5059642;28;20188;-81
2022/05/24 02:02:38;;;;;;;5.53;4.80;;;17.40;99.90;;;;;;5056086;28;20238;-81
2022/05/24 02:05:05;;;;;;;5.00;4.60;;;17.30;99.90;;;;;;5063568;28;20227;-81
2022/05/24 02:07:32;;;;;;;5.50;4.85;;;17.20;99.90;;;;;;5037562;28;20188;-81
2022/05/24 02:09:58;;;;;;;5.47;4.97;;;17.20;99.90;;;;;;5061640;28;20203;-80
2022/05/24 02:12:26;;;;;;;5.82;4.80;;;17.20;99.90;;;;;;5048882;28;20236;-81
2022/05/24 02:15:03;;;;;;;5.68;5.18;;;17.20;99.90;;;;;;5061652;28;20208;-80
2022/05/24 02:17:39;;;;;;;5.53;5.13;;;17.30;99.90;;;;;;5061443;28;20177;-81
2022/05/24 02:20:09;;;;;;;5.03;4.63;;;17.20;99.90;;;;;;5055180;28;20170;-81
2022/05/24 02:22:37;;;;;;;4.65;4.35;;;17.20;99.90;;;;;;5044288;28;20607;-81
2022/05/24 02:25:24;;;;;;;4.72;4.43;;;17.30;99.90;;;;;;5060655;28;20261;-82
2022/05/24 02:27:50;;;;;;;5.00;4.70;;;17.40;99.90;;;;;;5064893;28;20203;-81
2022/05/24 02:30:23;;;;;;;6.32;4.43;;;17.50;99.90;;;;;;5040335;28;20206;-81
2022/05/24 02:32:49;;;;;;;4.93;4.63;;;17.60;99.90;;;;;;5052859;28;20788;-81
2022/05/24 02:35:15;;;;;;;5.20;4.80;;;17.70;99.90;;;;;;5043181;28;20197;-80
2022/05/24 02:37:42;;;;;;;5.63;5.13;;;17.60;99.90;;;;;;5064918;28;20224;-81
2022/05/24 02:42:54;;;;;;;5.78;5.28;;;17.20;99.90;;;;;;5057785;28;20234;-80
2022/05/24 02:45:20;;;;;;;5.93;5.10;;;17.10;99.90;;;;;;5054611;28;20203;-81
2022/05/24 02:47:46;;;;;;;5.53;4.95;;;17.10;99.90;;;;;;5059268;28;20184;-81
2022/05/24 02:50:12;;;;;;;6.05;5.55;;;17.10;99.90;;;;;;5062746;28;20238;-82
2022/05/24 02:52:41;;;;;;;5.80;5.22;;;17.00;99.90;;;;;;5055375;28;20203;-82
2022/05/24 02:55:09;;;;;;;5.18;4.72;;;17.00;99.90;;;;;;5046195;28;20231;-82
2022/05/24 02:57:36;;;;;;;6.10;5.50;;;17.10;99.90;;;;;;5049197;28;20198;-80
2022/05/24 03:00:08;;;;;;;5.80;5.30;;;17.10;99.90;;;;;;5073899;28;20187;-81
2022/05/24 03:02:34;;;;;;;6.07;5.53;;;17.10;99.90;;;;;;5064491;28;20203;-81
2022/05/24 03:05:01;;;;;;;5.30;4.90;;;17.10;99.90;;;;;;5047194;28;20261;-82
2022/05/24 03:10:11;;;;;;;5.70;5.30;;;16.90;99.90;;;;;;5043518;28;20284;-81
2022/05/24 03:15:20;;;;;;;6.10;5.60;;;16.60;99.90;;;;;;5062074;28;20210;-81
2022/05/24 03:17:46;;;;;;;5.83;5.23;;;16.60;99.90;;;;;;5061488;28;20195;-81
2022/05/24 03:20:12;;;;;;;6.03;5.57;;;16.60;99.90;;;;;;5058809;28;20195;-80
2022/05/24 03:22:41;;;;;;;5.27;4.87;;;16.70;99.90;;;;;;5054695;28;20228;-80
2022/05/24 03:25:07;;;;;;;8.43;7.07;;;16.70;99.90;;;;;;5043501;28;20221;-81
2022/05/24 03:27:33;;;;;;;5.60;5.20;;;16.80;99.90;;;;;;5062616;28;20216;-81
2022/05/24 03:29:59;;;;;;;5.60;5.17;;;16.80;99.90;;;;;;5061565;28;20231;-81
2022/05/24 03:32:25;;;;;;;5.00;4.70;;;16.80;99.90;;;;;;5060941;28;20226;-81
2022/05/24 03:34:51;;;;;;;4.57;4.27;;;16.90;99.90;;;;;;5062666;28;20298;-81
2022/05/24 03:37:17;;;;;;;6.85;5.38;;;17.10;99.90;;;;;;5045293;28;20206;-82
2022/05/24 03:39:42;;;;;;;5.03;4.63;;;17.30;99.90;;;;;;5057419;28;20655;-81
2022/05/24 03:42:08;;;;;;;5.68;5.22;;;17.40;99.90;;;;;;5048049;28;20245;-81
2022/05/24 03:44:34;;;;;;;5.55;5.05;;;17.50;99.90;;;;;;5057413;28;20199;-80
2022/05/24 03:47:00;;;;;;;7.10;4.97;;;17.60;99.90;;;;;;5043187;28;20248;-81
2022/05/24 03:49:25;;;;;;;6.97;5.20;;;17.50;99.90;;;;;;5062554;28;20196;-81
2022/05/24 03:51:51;;;;;;;5.00;4.60;;;17.40;99.90;;;;;;5057766;28;20215;-82
2022/05/24 03:54:18;;;;;;;5.00;4.50;;;17.30;99.90;;;;;;5052470;28;20243;-81
2022/05/24 03:59:36;;;;;;;4.70;4.20;;;17.20;99.90;;;;;;5035404;28;20219;-81
2022/05/24 04:02:03;;;;;;;5.38;4.20;;;17.30;99.90;;;;;;5033931;28;20195;-81
2022/05/24 04:04:29;;;;;;;3.95;3.72;;;17.20;99.90;;;;;;5060567;28;20727;-81
2022/05/24 04:06:55;;;;;;;4.07;3.70;;;17.10;99.90;;;;;;5060711;28;20650;-82
2022/05/24 04:09:20;;;;;;;4.18;3.85;;;17.10;99.90;;;;;;5065063;28;20223;-82
2022/05/24 04:11:46;;;;;;;7.03;4.20;;;17.20;99.90;;;;;;5066335;28;20199;-81
2022/05/24 04:14:12;;;;;;;4.00;3.65;;;17.10;99.90;;;;;;5039870;28;20805;-82
2022/05/24 04:16:37;;;;;;;6.53;4.07;;;17.20;99.90;;;;;;5083235;28;20253;-81
2022/05/24 04:19:03;;;;;;;4.70;4.18;;;17.20;99.90;;;;;;5063174;28;20196;-81
2022/05/24 04:21:29;;;;;;;4.10;3.42;;;17.20;99.90;;;;;;5047840;28;20248;-81
2022/05/24 04:23:54;;;;;;;4.40;3.90;;;17.20;99.90;;;;;;5058885;28;20240;-81
2022/05/24 04:26:20;;;;;;;4.10;3.80;;;17.20;99.90;;;;;;5047332;28;20258;-80
2022/05/24 04:28:46;;;;;;;4.10;3.78;;;17.00;99.90;;;;;;5068247;28;20194;-80
2022/05/24 04:31:12;;;;;;;4.38;4.03;;;17.10;99.90;;;;;;5067422;28;20193;-80
2022/05/24 04:33:37;;;;;;;4.60;3.60;;;17.00;99.90;;;;;;5069171;28;20218;-80
2022/05/24 04:36:03;;;;;;;4.35;3.95;;;17.00;99.90;;;;;;5044773;28;20681;-80
2022/05/24 04:38:29;;;;;;;5.70;3.97;;;17.00;99.90;;;;;;5048696;28;20205;-80
2022/05/24 04:43:39;;;;;;;4.20;3.90;;;16.80;99.90;;;;;;5059355;28;20272;-80
2022/05/24 04:46:05;;;;;;;5.30;4.82;;;16.80;99.90;;;;;;5045071;28;20201;-79
2022/05/24 04:48:34;;;;;;;4.30;3.90;;;16.80;99.90;;;;;;5062239;28;20230;-79
2022/05/24 04:50:59;;;;;;;4.73;4.40;;;16.90;99.90;;;;;;5061038;28;20195;-80
2022/05/24 04:53:27;;;;;;;4.10;3.80;;;16.80;99.90;;;;;;5061865;28;20263;-81
2022/05/24 04:55:53;;;;;;;4.37;4.07;;;16.80;99.90;;;;;;5065840;28;20202;-81
2022/05/24 04:58:19;;;;;;;4.37;3.83;;;16.80;99.90;;;;;;5060642;28;20239;-79
2022/05/24 05:00:46;;;;;;;3.70;3.40;;;16.80;99.90;;;;;;5065821;28;20194;-79
2022/05/24 05:03:14;;;;;;;4.27;3.87;;;16.80;99.90;;;;;;5064511;28;20285;-80
2022/05/24 05:05:40;;;;;;;3.23;3.03;;;16.80;99.90;;;;;;5059328;28;20184;-80
2022/05/24 05:08:07;;;;;;;3.50;3.30;;;17.00;99.90;;;;;;5058592;28;20237;-80
2022/05/24 05:10:36;;;;;;;3.13;2.78;;;17.20;99.90;;;;;;5040206;28;20215;-81
2022/05/24 05:13:03;;;;;;;4.18;3.88;;;17.30;99.90;;;;;;5064798;28;20242;-80
2022/05/24 05:15:29;;;;;;;4.50;3.30;;;17.30;99.90;;;;;;5047319;28;20671;-80
2022/05/24 05:18:09;;;;;;;3.78;3.47;;;17.30;99.90;;;;;;5051669;28;20186;-80
2022/05/24 05:20:39;;;;;;;4.28;3.35;;;17.40;99.90;;;;;;5068098;28;20205;-81
2022/05/24 05:23:09;;;;;;;3.83;3.20;;;17.40;99.90;;;;;;5043069;28;20681;-80
2022/05/24 05:25:36;;;;;;;4.13;3.60;;;17.40;99.90;;;;;;5061055;28;20207;-81
2022/05/24 05:28:02;;;;;;;2.97;2.77;;;17.40;99.90;;;;;;5063372;28;20184;-80
2022/05/24 05:33:14;;;;;;;3.38;3.08;;;17.60;99.90;;;;;;5062080;28;20319;-82
2022/05/24 05:35:42;;;;;;;4.30;3.57;;;17.60;99.90;;;;;;5044584;28;20186;-80
2022/05/24 05:38:08;;;;;;;4.73;3.50;;;17.50;99.90;;;;;;5064410;28;20281;-81
2022/05/24 05:40:34;;;;;;;3.87;3.10;;;17.30;99.90;;;;;;5058725;28;20190;-80
2022/05/24 05:42:59;;;;;;;14.90;4.20;;;17.30;99.90;;;;;;5066721;28;20233;-80
2022/05/24 05:45:25;;;;;;;6.07;3.50;;;17.20;99.90;;;;;;5066877;28;20272;-80
2022/05/24 05:47:53;;;;;;;4.07;3.17;;;17.10;99.90;;;;;;5067609;28;20185;-80
2022/05/24 05:50:20;;;;;;;3.50;3.10;;;16.90;99.90;;;;;;5044876;28;20259;-79
2022/05/24 05:52:46;;;;;;;2.20;1.70;;;16.80;99.90;;;;;;5037217;28;20208;-79
2022/05/24 05:55:12;;;;;;;2.33;1.77;;;16.30;99.90;;;;;;5055383;28;20212;-80
2022/05/24 05:57:39;;;;;;;4.07;2.00;;;16.00;99.90;;;;;;5062468;28;20361;-80
2022/05/24 06:00:05;;;;;;;2.27;1.83;;;15.80;99.90;;;;;;5058232;28;20187;-79
2022/05/24 06:02:31;;;;;;;2.40;1.90;;;15.80;99.90;;;;;;5031480;28;20203;-80
2022/05/24 06:04:57;;;;;;;2.27;1.90;;;15.80;99.90;;;;;;5053699;28;20204;-80
2022/05/24 06:07:23;;;;;;;3.23;1.70;;;15.80;99.90;;;;;;5062366;28;20187;-80
2022/05/24 06:09:50;;;;;;;1.80;1.50;;;15.70;99.90;;;;;;5057832;28;20231;-81
2022/05/24 06:12:16;;;;;;;1.60;1.50;;;15.70;99.90;;;;;;5058072;28;20213;-80
2022/05/24 06:14:41;;;;;;;1.67;1.50;;;15.70;99.90;;;;;;5063613;28;20272;-78
2022/05/24 06:17:07;;;;;;;1.73;1.60;;;15.50;99.90;;;;;;5059858;28;20200;-81
2022/05/24 06:19:33;;;;;;;4.73;1.87;;;15.50;99.90;;;;;;5055443;28;20206;-80
2022/05/24 06:21:58;;;;;;;2.97;1.40;;;15.50;99.90;;;;;;5065818;28;20179;-80
2022/05/24 06:24:24;;;;;;;3.60;1.50;;;15.60;99.90;;;;;;5068226;28;20198;-80
2022/05/24 06:26:50;;;;;;;1.63;1.53;;;15.60;99.90;;;;;;5059251;28;20211;-81
2022/05/24 06:29:17;;;;;;;2.10;1.53;;;15.60;99.90;;;;;;5058583;28;20279;-82
2022/05/24 06:31:44;;;;;;;2.83;1.50;;;15.60;99.90;;;;;;5065941;28;20253;-80
2022/05/24 06:34:13;;;;;;;2.83;1.60;;;15.60;99.90;;;;;;5066385;28;20222;-82
2022/05/24 06:36:39;;;;;;;2.27;1.53;;;15.60;99.90;;;;;;5046080;28;20191;-80
2022/05/24 06:39:05;;;;;;;2.30;1.57;;;15.60;99.90;;;;;;5063032;28;20211;-81
2022/05/24 06:41:30;;;;;;;1.87;1.47;;;15.50;99.90;;;;;;5042261;28;20188;-81
2022/05/24 06:43:56;;;;;;;1.60;1.50;;;15.50;99.90;;;;;;5055295;28;20715;-81
2022/05/24 06:46:22;;;;;;;2.10;1.80;;;15.40;99.90;;;;;;5056884;28;20198;-82
2022/05/24 06:48:48;;;;;;;1.77;1.30;;;15.30;99.90;;;;;;5059808;28;20253;-81
2022/05/24 06:51:17;;;;;;;1.43;1.40;;;15.30;99.90;;;;;;5065869;28;20191;-81
2022/05/24 06:53:45;;;;;;;2.20;1.80;;;15.20;99.90;;;;;;5059522;28;20237;-81
2022/05/24 06:56:11;;;;;;;2.50;1.60;;;15.20;99.90;;;;;;5060013;28;20205;-81
2022/05/24 06:58:37;;;;;;;2.13;1.80;;;15.20;99.90;;;;;;5047299;28;20193;-81
2022/05/24 07:03:50;;;;;;;2.83;1.70;;;15.10;99.90;;;;;;5061819;28;20285;-81
2022/05/24 07:06:16;;;;;;;2.20;2.00;;;15.20;99.90;;;;;;5061292;28;20188;-80
2022/05/24 07:08:47;;;;;;;5.23;1.80;;;15.20;99.90;;;;;;5068715;28;20239;-81
2022/05/24 07:11:14;;;;;;;1.80;1.53;;;15.30;99.90;;;;;;5067401;28;20180;-80
2022/05/24 07:13:40;;;;;;;1.60;1.50;;;15.50;99.90;;;;;;5062750;28;20301;-80
2022/05/24 07:16:07;;;;;;;2.63;2.03;;;15.50;99.90;;;;;;5041344;28;20193;-80
2022/05/24 07:18:34;;;;;;;1.73;1.63;;;15.40;99.90;;;;;;5065304;28;20186;-81
2022/05/24 07:21:00;;;;;;;1.60;1.43;;;15.50;99.90;;;;;;5057587;28;20181;-80
2022/05/24 07:23:26;;;;;;;1.47;1.40;;;15.50;99.90;;;;;;5061938;28;20233;-80
2022/05/24 07:25:54;;;;;;;1.80;1.70;;;15.70;99.90;;;;;;5059088;28;20206;-80
2022/05/24 07:28:22;;;;;;;3.67;1.73;;;15.80;99.90;;;;;;5057037;28;20206;-81
2022/05/24 07:30:49;;;;;;;2.40;1.70;;;15.80;99.90;;;;;;5050943;28;20212;-79
2022/05/24 07:33:16;;;;;;;2.67;1.70;;;15.70;99.90;;;;;;5063785;28;20242;-80
2022/05/24 07:35:43;;;;;;;3.37;1.57;;;15.80;99.90;;;;;;5059287;28;20232;-80
2022/05/24 07:38:10;;;;;;;2.00;1.80;;;15.80;99.90;;;;;;5062866;28;20188;-81
2022/05/24 07:46:12;;;;;;;1.93;1.73;;;16.30;99.90;;;;;;5060695;28;20525;-79
2022/05/24 07:48:38;;;;;;;1.70;1.60;;;16.00;99.90;;;;;;5059677;28;20223;-80
2022/05/24 07:51:05;;;;;;;2.30;1.70;;;16.10;99.90;;;;;;5057766;28;20200;-80
2022/05/24 07:53:31;;;;;;;3.13;1.83;;;16.10;99.90;;;;;;5059646;28;20220;-79
2022/05/24 07:55:58;;;;;;;2.43;1.80;;;16.10;99.90;;;;;;5057053;28;20189;-80
2022/05/24 07:58:25;;;;;;;2.20;2.00;;;16.20;99.90;;;;;;5059404;28;20205;-80
2022/05/24 08:00:54;;;;;;;2.60;1.73;;;16.40;99.90;;;;;;5057564;28;20191;-79
2022/05/24 08:03:20;;;;;;;1.70;1.60;;;16.40;99.40;;;;;;5057548;28;20215;-80
2022/05/24 08:05:46;;;;;;;3.43;1.60;;;16.60;99.90;;;;;;5039979;28;20207;-80
2022/05/24 08:08:14;;;;;;;2.63;1.93;;;16.40;95.80;;;;;;5056692;28;20193;-80
2022/05/24 08:10:41;;;;;;;1.90;1.70;;;16.50;99.90;;;;;;5064302;28;20200;-82
2022/05/24 08:13:09;;;;;;;2.70;1.70;;;16.40;98.00;;;;;;5057375;28;20215;-81
2022/05/24 08:15:35;;;;;;;1.70;1.60;;;16.50;99.10;;;;;;5062328;28;20194;-80
2022/05/24 08:18:01;;;;;;;1.63;1.53;;;16.50;97.50;;;;;;5066275;28;20268;-80
2022/05/24 08:20:29;;;;;;;14.63;2.23;;;16.60;94.00;;;;;;5046350;28;20693;-79
2022/05/24 08:22:57;;;;;;;1.80;1.70;;;16.50;95.60;;;;;;5065216;28;20227;-81
2022/05/24 08:25:25;;;;;;;4.03;1.87;;;16.70;94.00;;;;;;5044055;28;20203;-80
2022/05/24 08:27:51;;;;;;;1.70;1.60;;;16.80;93.40;;;;;;5060700;28;20196;-80
2022/05/24 08:30:18;;;;;;;2.07;1.60;;;17.00;90.60;;;;;;5063628;28;20193;-81
2022/05/24 08:32:47;;;;;;;1.50;1.50;;;16.90;90.70;;;;;;5040059;28;20687;-81
2022/05/24 08:35:14;;;;;;;1.50;1.40;;;17.00;88.40;;;;;;5068705;28;20210;-79
2022/05/24 08:37:41;;;;;;;2.30;1.60;;;16.90;89.50;;;;;;5070526;28;20256;-80
2022/05/24 08:40:08;;;;;;;2.17;1.60;;;17.00;89.20;;;;;;5066086;28;20196;-80
2022/05/24 08:42:51;;;;;;;1.47;1.37;;;17.20;88.90;;;;;;5066492;28;20222;-80
2022/05/24 08:48:46;;;;;;;2.10;1.40;;;17.50;90.30;;;;;;5065817;28;20207;-81
2022/05/24 08:51:28;;;;;;;1.70;1.20;;;17.80;83.60;;;;;;5034710;28;20222;-81
2022/05/24 08:53:57;;;;;;;1.77;1.50;;;17.70;80.60;;;;;;5063548;28;20234;-80
2022/05/24 08:56:36;;;;;;;1.60;1.50;;;17.80;83.20;;;;;;5048324;28;20192;-80
2022/05/24 08:59:12;;;;;;;1.70;1.60;;;17.80;82.20;;;;;;5065170;28;20655;-80
2022/05/24 09:01:41;;;;;;;1.77;1.67;;;17.60;85.70;;;;;;5066528;28;20272;-80
2022/05/24 09:04:12;;;;;;;1.43;1.33;;;17.90;82.30;;;;;;5064853;28;20212;-81
2022/05/24 09:07:00;;;;;;;1.40;1.30;;;18.00;80.70;;;;;;5066947;28;20199;-80
2022/05/24 09:09:47;;;;;;;1.50;1.40;;;18.00;79.00;;;;;;5066841;28;20188;-80
2022/05/24 09:12:18;;;;;;;1.80;1.60;;;18.10;82.10;;;;;;5045386;28;20192;-79
2022/05/24 09:15:06;;;;;;;1.73;1.47;;;18.30;78.80;;;;;;5061478;28;20251;-80
2022/05/24 09:17:50;;;;;;;1.40;1.40;;;18.30;78.20;;;;;;5065140;28;20309;-80
2022/05/24 09:20:26;;;;;;;5.30;1.50;;;18.40;79.70;;;;;;5067001;28;20213;-80
2022/05/24 09:23:09;;;;;;;2.73;1.60;;;18.70;78.70;;;;;;5061509;28;20210;-80
2022/05/24 09:25:35;;;;;;;2.57;1.50;;;19.20;77.90;;;;;;5063304;28;20222;-80
2022/05/24 09:28:00;;;;;;;1.67;1.57;;;19.30;74.80;;;;;;5067385;28;20307;-81
2022/05/24 09:30:29;;;;;;;1.93;1.50;;;19.50;72.50;;;;;;5043822;28;20554;-80
2022/05/24 09:33:25;;;;;;;1.50;1.40;;;19.20;74.00;;;;;;5060117;28;20218;-80
2022/05/24 09:35:58;;;;;;;1.40;1.40;;;19.10;72.50;;;;;;5060246;28;20252;-81
2022/05/24 09:38:33;;;;;;;1.50;1.40;;;18.90;71.20;;;;;;5045061;28;20207;-79
2022/05/24 09:41:16;;;;;;;2.57;1.40;;;19.10;72.40;;;;;;5041953;28;20192;-81
2022/05/24 09:43:43;;;;;;;1.67;1.40;;;19.30;74.00;;;;;;5062026;28;20226;-82
2022/05/24 09:46:11;;;;;;;1.60;1.50;;;19.40;69.80;;;;;;5053125;28;20198;-81
2022/05/24 09:48:53;;;;;;;1.45;1.42;;;19.50;69.00;;;;;;5064103;28;20189;-81
2022/05/24 09:51:38;;;;;;;1.30;1.30;;;19.80;74.70;;;;;;5060636;28;20217;-82
2022/05/24 09:54:11;;;;;;;1.77;1.67;;;19.80;65.20;;;;;;5059084;28;20226;-82
2022/05/24 09:56:36;;;;;;;2.97;1.77;;;19.70;69.60;;;;;;5064788;28;20192;-82
2022/05/24 09:59:23;;;;;;;2.33;1.98;;;19.90;67.70;;;;;;5064375;28;20211;-82
2022/05/24 10:01:50;;;;;;;1.25;1.23;;;19.70;68.70;;;;;;5063178;28;20210;-82
2022/05/24 10:04:29;;;;;;;1.50;1.40;;;19.60;65.90;;;;;;5057974;28;20238;-81
2022/05/24 10:07:00;;;;;;;3.17;1.92;;;19.80;66.30;;;;;;5046471;28;20195;-81
2022/05/24 10:09:49;;;;;;;1.85;1.30;;;19.70;63.10;;;;;;5065041;28;20661;-82
2022/05/24 10:12:50;;;;;;;1.35;1.27;;;19.80;60.50;;;;;;5061580;28;20210;-80
2022/05/24 10:15:39;;;;;;;1.45;1.38;;;20.10;60.80;;;;;;5058710;28;20203;-81
2022/05/24 10:18:27;;;;;;;1.58;1.48;;;20.20;62.40;;;;;;5059438;28;20191;-82
2022/05/24 10:21:02;;;;;;;1.58;1.48;;;20.50;60.80;;;;;;5062835;28;20192;-81
2022/05/24 10:23:42;;;;;;;3.05;1.80;;;20.70;59.30;;;;;;5066575;28;20238;-80
2022/05/24 10:26:41;;;;;;;1.80;1.55;;;20.90;62.00;;;;;;5064586;28;20195;-80
2022/05/24 10:29:37;;;;;;;1.95;1.60;;;21.00;57.00;;;;;;5074278;28;20191;-81
2022/05/24 10:38:17;;;;;;;2.10;1.40;;;20.90;56.30;;;;;;5063362;28;20288;-82
2022/05/24 10:38:20;;;;;;;1.92;1.83;;;20.20;55.90;;;;;;5062936;28;20178;-81
2022/05/24 10:41:08;;;;;;;1.63;1.52;;;20.80;52.40;;;;;;5058837;28;20187;-80
2022/05/24 10:43:54;;;;;;;1.63;1.38;;;20.70;52.20;;;;;;5045406;28;20741;-82
2022/05/24 10:46:43;;;;;;;1.55;1.45;;;20.60;53.80;;;;;;5061851;28;20251;-81
2022/05/24 10:49:17;;;;;;;3.60;1.88;;;20.90;51.90;;;;;;5062579;28;20637;-82
2022/05/24 10:51:48;;;;;;;1.70;1.60;;;21.30;53.80;;;;;;5046991;28;20188;-81
2022/05/24 10:54:22;;;;;;;1.55;1.42;;;21.30;52.90;;;;;;5064360;28;20257;-82
2022/05/24 10:56:58;;;;;;;1.70;1.60;;;21.60;52.20;;;;;;5060235;28;20180;-82
2022/05/24 10:59:36;;;;;;;1.63;1.40;;;21.90;50.20;;;;;;5065813;28;20201;-81
2022/05/24 11:02:24;;;;;;;3.53;1.60;;;21.70;52.20;;;;;;5063087;28;20261;-81
2022/05/24 11:05:29;;;;;;;2.67;1.50;;;22.00;50.80;;;;;;5063907;28;20185;-80
2022/05/24 11:08:23;;;;;;;1.60;1.50;;;22.30;51.40;;;;;;5047744;28;20211;-80
2022/05/24 11:10:51;;;;;;;1.70;1.60;;;22.40;51.10;;;;;;5044663;28;20209;-82
2022/05/24 11:13:55;;;;;;;1.60;1.50;;;22.50;49.70;;;;;;5042895;28;20241;-82
2022/05/24 11:16:35;;;;;;;1.60;1.50;;;22.70;50.00;;;;;;4998620;28;20419;-82
2022/05/24 11:19:01;;;;;;;3.58;1.40;;;22.50;48.60;;;;;;5045647;28;20200;-81
2022/05/24 11:21:39;;;;;;;1.55;1.38;;;22.40;47.60;;;;;;5070918;28;20268;-81
2022/05/24 11:24:13;;;;;;;1.88;1.58;;;22.10;48.70;;;;;;5072075;28;20216;-81
2022/05/24 11:26:50;;;;;;;1.80;1.70;;;22.20;50.10;;;;;;5073298;28;20206;-81
2022/05/24 11:29:31;;;;;;;1.95;1.70;;;22.30;48.40;;;;;;5066963;28;20193;-80
2022/05/24 11:32:09;;;;;;;2.10;1.50;;;22.40;48.20;;;;;;5041693;28;20229;-80
2022/05/24 11:34:58;;;;;;;2.75;1.58;;;22.80;47.60;;;;;;5060635;28;20214;-82
2022/05/24 11:37:30;;;;;;;1.75;1.65;;;22.80;47.60;;;;;;5061984;28;20236;-82
2022/05/24 11:40:16;;;;;;;1.67;1.50;;;23.10;49.20;;;;;;5064503;28;20337;-81
2022/05/24 11:42:47;;;;;;;1.40;1.40;;;23.30;47.30;;;;;;5063064;28;20223;-82
2022/05/24 11:45:28;;;;;;;2.38;1.90;;;23.70;47.50;;;;;;5042529;28;20225;-81
2022/05/24 11:48:15;;;;;;;1.92;1.83;;;24.00;45.40;;;;;;5060634;28;20188;-81
2022/05/24 11:50:52;;;;;;;2.08;1.70;;;23.80;46.40;;;;;;5060060;28;20184;-82
2022/05/24 11:53:35;;;;;;;1.63;1.52;;;23.80;45.40;;;;;;5059932;28;20266;-82
2022/05/24 11:56:21;;;;;;;2.30;1.80;;;24.00;44.80;;;;;;5042214;28;20251;-81
2022/05/24 11:58:50;;;;;;;1.73;1.63;;;24.30;44.00;;;;;;5043977;28;20180;-80
2022/05/24 12:01:16;;;;;;;1.73;1.63;;;24.30;44.40;;;;;;5058509;28;20192;-82
2022/05/24 12:09:59;;;;;;;1.95;1.70;;;24.50;43.70;;;;;;5061037;28;20245;-81
2022/05/24 12:12:54;;;;;;;1.65;1.55;;;24.10;42.90;;;;;;5064296;28;20258;-81
2022/05/24 12:15:22;;;;;;;1.67;1.58;;;24.50;45.30;;;;;;5064667;28;20204;-81
2022/05/24 12:17:59;;;;;;;1.58;1.48;;;24.30;43.90;;;;;;5066291;28;20184;-81
2022/05/24 12:20:35;;;;;;;3.88;1.67;;;23.70;44.80;;;;;;5049051;28;20246;-80
2022/05/24 12:23:06;;;;;;;1.50;1.40;;;23.80;44.60;;;;;;5068343;28;20196;-80
2022/05/24 12:25:51;;;;;;;1.88;1.42;;;23.40;45.00;;;;;;5062285;28;20263;-82
2022/05/24 12:28:41;;;;;;;1.60;1.50;;;23.20;46.20;;;;;;5064776;28;20192;-81
2022/05/24 12:31:21;;;;;;;1.45;1.40;;;22.70;47.10;;;;;;5056420;28;20200;-81
2022/05/24 12:34:13;;;;;;;1.67;1.58;;;22.60;47.90;;;;;;5067003;28;20610;-81
2022/05/24 12:36:41;;;;;;;2.40;1.40;;;22.80;46.60;;;;;;5062170;28;20837;-81
2022/05/24 12:39:12;;;;;;;2.30;1.50;;;23.00;47.40;;;;;;5046154;28;20226;-81
2022/05/24 12:41:43;;;;;;;2.20;1.70;;;23.30;45.20;;;;;;5065778;28;20180;-81
2022/05/24 12:44:31;;;;;;;2.00;1.50;;;23.30;45.40;;;;;;5062208;28;20269;-81
2022/05/24 12:47:06;;;;;;;1.50;1.38;;;23.00;44.10;;;;;;5063764;28;20237;-81
2022/05/24 12:49:35;;;;;;;1.63;1.50;;;23.40;44.20;;;;;;5063609;28;20188;-81
2022/05/24 12:52:13;;;;;;;1.60;1.40;;;23.40;44.50;;;;;;5064416;28;20202;-81
2022/05/24 12:54:48;;;;;;;1.50;1.50;;;23.20;45.10;;;;;;5067256;28;20216;-81
2022/05/24 12:57:28;;;;;;;1.48;1.20;;;23.00;44.40;;;;;;5046381;28;20192;-81
2022/05/24 12:59:59;;;;;;;1.45;1.40;;;22.50;42.90;;;;;;5063004;28;20231;-82
2022/05/24 13:02:37;;;;;;;2.20;1.52;;;22.30;45.10;;;;;;5061659;28;20196;-81
2022/05/24 13:05:26;;;;;;;3.75;1.50;;;22.90;43.00;;;;;;5063380;28;20195;-81
2022/05/24 13:07:59;;;;;;;1.88;1.30;;;22.40;44.40;;;;;;5062416;28;20192;-80
2022/05/24 13:10:39;;;;;;;1.40;1.40;;;22.60;44.40;;;;;;5060150;28;20184;-81
2022/05/24 13:13:13;;;;;;;2.92;1.67;;;23.10;42.60;;;;;;5059393;28;20238;-81
2022/05/24 13:15:52;;;;;;;2.08;1.60;;;23.30;41.60;;;;;;5044105;28;20199;-82
2022/05/24 13:18:24;;;;;;;4.10;1.60;;;23.70;42.00;;;;;;5063683;28;20206;-81
2022/05/24 13:21:03;;;;;;;1.50;1.40;;;24.20;39.40;;;;;;5065423;28;20291;-81
2022/05/24 13:23:36;;;;;;;1.55;1.45;;;24.70;39.20;;;;;;5062560;28;20645;-81
2022/05/24 13:26:02;;;;;;;1.67;1.40;;;24.50;38.70;;;;;;5032086;28;20314;-80
2022/05/24 13:28:48;;;;;;;1.45;1.35;;;24.50;39.60;;;;;;5066303;28;20231;-81
2022/05/24 13:34:25;;;;;;;2.42;1.50;;;24.50;39.80;;;;;;5065794;28;20254;-81
2022/05/24 13:36:57;;;;;;;1.65;1.55;;;24.70;40.10;;;;;;5065150;28;20187;-81
2022/05/24 13:39:27;;;;;;;5.32;1.60;;;25.20;39.40;;;;;;5064887;28;20606;-81
2022/05/24 13:42:17;;;;;;;1.90;1.50;;;24.50;36.70;;;;;;5065881;28;20204;-81
2022/05/24 13:45:04;;;;;;;1.63;1.52;;;24.30;39.90;;;;;;5065010;28;20238;-81
2022/05/24 13:47:55;;;;;;;1.83;1.67;;;24.70;40.60;;;;;;5066232;28;20203;-80
2022/05/24 13:50:29;;;;;;;4.90;1.60;;;24.90;38.90;;;;;;5057552;28;20203;-81
2022/05/24 13:53:25;;;;;;;2.47;1.70;;;25.80;37.30;;;;;;5063498;28;20207;-82
2022/05/24 13:55:55;;;;;;;2.20;1.65;;;25.20;39.50;;;;;;5060378;28;20223;-80
2022/05/24 13:58:37;;;;;;;1.60;1.50;;;25.50;38.30;;;;;;5068186;28;20196;-81